sensor_id;sensor_type;location;lat;lon;timestamp;P1;durP1;ratioP1;P2;durP2;ratioP2
21110;SDS011;10713;51.912;4.494;2023-04-03T00:01:09;6.07;;;1.70;;
21110;SDS011;10713;51.912;4.494;2023-04-03T00:03:35;2.75;;;1.60;;
21110;SDS011;10713;51.912;4.494;2023-04-03T00:06:01;2.70;;;1.70;;
21110;SDS011;10713;51.912;4.494;2023-04-03T00:08:27;4.15;;;1.90;;
21110;SDS011;10713;51.912;4.494;2023-04-03T00:10:55;3.40;;;1.65;;
21110;SDS011;10713;51.912;4.494;2023-04-03T00:13:21;3.10;;;1.70;;
21110;SDS011;10713;51.912;4.494;2023-04-03T00:15:46;4.55;;;1.90;;
21110;SDS011;10713;51.912;4.494;2023-04-03T00:18:12;2.63;;;1.58;;
21110;SDS011;10713;51.912;4.494;2023-04-03T00:20:37;2.88;;;1.50;;
21110;SDS011;10713;51.912;4.494;2023-04-03T00:23:02;5.90;;;1.80;;
21110;SDS011;10713;51.912;4.494;2023-04-03T00:25:28;4.47;;;1.65;;
21110;SDS011;10713;51.912;4.494;2023-04-03T00:27:54;5.10;;;1.50;;
21110;SDS011;10713;51.912;4.494;2023-04-03T00:30:20;5.25;;;1.90;;
21110;SDS011;10713;51.912;4.494;2023-04-03T00:32:49;5.47;;;1.55;;
21110;SDS011;10713;51.912;4.494;2023-04-03T00:35:16;3.45;;;1.73;;
21110;SDS011;10713;51.912;4.494;2023-04-03T00:37:42;3.17;;;1.60;;
21110;SDS011;10713;51.912;4.494;2023-04-03T00:40:08;4.60;;;1.70;;
21110;SDS011;10713;51.912;4.494;2023-04-03T00:42:38;3.13;;;1.70;;
21110;SDS011;10713;51.912;4.494;2023-04-03T00:47:30;3.00;;;1.60;;
21110;SDS011;10713;51.912;4.494;2023-04-03T00:49:56;5.15;;;1.63;;
21110;SDS011;10713;51.912;4.494;2023-04-03T00:52:23;3.20;;;1.80;;
21110;SDS011;10713;51.912;4.494;2023-04-03T00:54:54;3.25;;;1.70;;
21110;SDS011;10713;51.912;4.494;2023-04-03T00:57:27;5.85;;;1.75;;
21110;SDS011;10713;51.912;4.494;2023-04-03T00:59:57;2.60;;;1.63;;
21110;SDS011;10713;51.912;4.494;2023-04-03T01:02:27;3.53;;;1.70;;
21110;SDS011;10713;51.912;4.494;2023-04-03T01:04:53;4.05;;;2.10;;
21110;SDS011;10713;51.912;4.494;2023-04-03T01:07:20;4.07;;;1.80;;
21110;SDS011;10713;51.912;4.494;2023-04-03T01:09:49;5.47;;;1.48;;
21110;SDS011;10713;51.912;4.494;2023-04-03T01:12:21;4.13;;;1.60;;
21110;SDS011;10713;51.912;4.494;2023-04-03T01:14:59;6.82;;;1.85;;
21110;SDS011;10713;51.912;4.494;2023-04-03T01:19:57;2.95;;;1.48;;
21110;SDS011;10713;51.912;4.494;2023-04-03T01:22:29;6.63;;;1.85;;
21110;SDS011;10713;51.912;4.494;2023-04-03T01:25:03;4.00;;;1.98;;
21110;SDS011;10713;51.912;4.494;2023-04-03T01:27:29;3.85;;;1.95;;
21110;SDS011;10713;51.912;4.494;2023-04-03T01:29:54;5.82;;;1.98;;
21110;SDS011;10713;51.912;4.494;2023-04-03T01:32:20;3.90;;;2.00;;
21110;SDS011;10713;51.912;4.494;2023-04-03T01:34:45;5.82;;;2.00;;
21110;SDS011;10713;51.912;4.494;2023-04-03T01:37:11;6.70;;;2.10;;
21110;SDS011;10713;51.912;4.494;2023-04-03T01:39:36;3.22;;;1.55;;
21110;SDS011;10713;51.912;4.494;2023-04-03T01:42:02;7.47;;;2.30;;
21110;SDS011;10713;51.912;4.494;2023-04-03T01:44:28;3.90;;;1.85;;
21110;SDS011;10713;51.912;4.494;2023-04-03T01:46:53;3.03;;;1.70;;
21110;SDS011;10713;51.912;4.494;2023-04-03T01:49:19;3.60;;;1.90;;
21110;SDS011;10713;51.912;4.494;2023-04-03T01:51:44;2.72;;;1.55;;
21110;SDS011;10713;51.912;4.494;2023-04-03T01:54:10;2.80;;;1.90;;
21110;SDS011;10713;51.912;4.494;2023-04-03T01:56:35;4.47;;;2.05;;
21110;SDS011;10713;51.912;4.494;2023-04-03T01:59:01;6.63;;;2.13;;
21110;SDS011;10713;51.912;4.494;2023-04-03T02:01:26;2.67;;;1.83;;
21110;SDS011;10713;51.912;4.494;2023-04-03T02:03:51;7.50;;;2.22;;
21110;SDS011;10713;51.912;4.494;2023-04-03T02:06:17;3.90;;;1.95;;
21110;SDS011;10713;51.912;4.494;2023-04-03T02:08:42;6.20;;;2.05;;
21110;SDS011;10713;51.912;4.494;2023-04-03T02:11:07;4.95;;;2.15;;
21110;SDS011;10713;51.912;4.494;2023-04-03T02:13:33;7.55;;;2.00;;
21110;SDS011;10713;51.912;4.494;2023-04-03T02:15:58;5.38;;;2.08;;
21110;SDS011;10713;51.912;4.494;2023-04-03T02:18:24;6.15;;;2.17;;
21110;SDS011;10713;51.912;4.494;2023-04-03T02:20:49;5.05;;;2.13;;
21110;SDS011;10713;51.912;4.494;2023-04-03T02:23:15;5.50;;;1.90;;
21110;SDS011;10713;51.912;4.494;2023-04-03T02:25:40;6.63;;;1.90;;
21110;SDS011;10713;51.912;4.494;2023-04-03T02:28:05;3.20;;;1.90;;
21110;SDS011;10713;51.912;4.494;2023-04-03T02:30:31;4.60;;;2.35;;
21110;SDS011;10713;51.912;4.494;2023-04-03T02:32:57;2.22;;;1.63;;
21110;SDS011;10713;51.912;4.494;2023-04-03T02:35:22;4.90;;;2.10;;
21110;SDS011;10713;51.912;4.494;2023-04-03T02:37:47;4.93;;;2.30;;
21110;SDS011;10713;51.912;4.494;2023-04-03T02:40:13;10.05;;;2.28;;
21110;SDS011;10713;51.912;4.494;2023-04-03T02:42:38;4.90;;;1.90;;
21110;SDS011;10713;51.912;4.494;2023-04-03T02:45:04;3.97;;;2.20;;
21110;SDS011;10713;51.912;4.494;2023-04-03T02:47:30;6.53;;;2.17;;
21110;SDS011;10713;51.912;4.494;2023-04-03T02:49:55;2.88;;;2.00;;
21110;SDS011;10713;51.912;4.494;2023-04-03T02:52:21;5.80;;;2.28;;
21110;SDS011;10713;51.912;4.494;2023-04-03T02:54:47;4.80;;;2.20;;
21110;SDS011;10713;51.912;4.494;2023-04-03T02:57:12;4.78;;;2.08;;
21110;SDS011;10713;51.912;4.494;2023-04-03T02:59:37;7.50;;;2.88;;
21110;SDS011;10713;51.912;4.494;2023-04-03T03:02:07;7.07;;;1.98;;
21110;SDS011;10713;51.912;4.494;2023-04-03T03:04:33;3.38;;;2.13;;
21110;SDS011;10713;51.912;4.494;2023-04-03T03:06:58;4.05;;;2.17;;
21110;SDS011;10713;51.912;4.494;2023-04-03T03:09:23;5.57;;;2.30;;
21110;SDS011;10713;51.912;4.494;2023-04-03T03:11:50;5.13;;;2.30;;
21110;SDS011;10713;51.912;4.494;2023-04-03T03:14:15;4.40;;;2.22;;
21110;SDS011;10713;51.912;4.494;2023-04-03T03:16:41;4.28;;;2.53;;
21110;SDS011;10713;51.912;4.494;2023-04-03T03:19:06;7.40;;;2.30;;
21110;SDS011;10713;51.912;4.494;2023-04-03T03:21:31;5.30;;;2.15;;
21110;SDS011;10713;51.912;4.494;2023-04-03T03:23:57;7.35;;;2.47;;
21110;SDS011;10713;51.912;4.494;2023-04-03T03:26:22;7.18;;;2.40;;
21110;SDS011;10713;51.912;4.494;2023-04-03T03:28:48;5.28;;;2.25;;
21110;SDS011;10713;51.912;4.494;2023-04-03T03:31:14;4.43;;;2.00;;
21110;SDS011;10713;51.912;4.494;2023-04-03T03:33:40;6.00;;;2.47;;
21110;SDS011;10713;51.912;4.494;2023-04-03T03:36:05;6.55;;;2.25;;
21110;SDS011;10713;51.912;4.494;2023-04-03T03:38:31;6.38;;;2.58;;
21110;SDS011;10713;51.912;4.494;2023-04-03T03:40:56;4.32;;;2.00;;
21110;SDS011;10713;51.912;4.494;2023-04-03T03:43:22;4.47;;;2.42;;
21110;SDS011;10713;51.912;4.494;2023-04-03T03:45:51;4.80;;;2.08;;
21110;SDS011;10713;51.912;4.494;2023-04-03T03:48:17;3.15;;;2.13;;
21110;SDS011;10713;51.912;4.494;2023-04-03T03:50:44;5.80;;;2.67;;
21110;SDS011;10713;51.912;4.494;2023-04-03T03:53:10;6.18;;;2.42;;
21110;SDS011;10713;51.912;4.494;2023-04-03T03:55:35;5.88;;;2.90;;
21110;SDS011;10713;51.912;4.494;2023-04-03T03:58:00;4.30;;;2.60;;
21110;SDS011;10713;51.912;4.494;2023-04-03T04:00:26;6.57;;;2.22;;
21110;SDS011;10713;51.912;4.494;2023-04-03T04:02:52;3.35;;;2.08;;
21110;SDS011;10713;51.912;4.494;2023-04-03T04:05:18;4.28;;;2.17;;
21110;SDS011;10713;51.912;4.494;2023-04-03T04:07:43;6.55;;;2.33;;
21110;SDS011;10713;51.912;4.494;2023-04-03T04:10:09;5.35;;;2.60;;
21110;SDS011;10713;51.912;4.494;2023-04-03T04:12:34;4.30;;;2.10;;
21110;SDS011;10713;51.912;4.494;2023-04-03T04:15:00;5.97;;;2.55;;
21110;SDS011;10713;51.912;4.494;2023-04-03T04:17:26;8.63;;;2.83;;
21110;SDS011;10713;51.912;4.494;2023-04-03T04:19:51;4.95;;;2.50;;
21110;SDS011;10713;51.912;4.494;2023-04-03T04:22:17;8.32;;;2.83;;
21110;SDS011;10713;51.912;4.494;2023-04-03T04:24:42;4.30;;;2.50;;
21110;SDS011;10713;51.912;4.494;2023-04-03T04:27:07;5.55;;;2.15;;
21110;SDS011;10713;51.912;4.494;2023-04-03T04:29:33;4.70;;;2.47;;
21110;SDS011;10713;51.912;4.494;2023-04-03T04:32:01;5.90;;;2.22;;
21110;SDS011;10713;51.912;4.494;2023-04-03T04:34:27;5.70;;;2.30;;
21110;SDS011;10713;51.912;4.494;2023-04-03T04:36:53;4.93;;;2.63;;
21110;SDS011;10713;51.912;4.494;2023-04-03T04:39:18;9.93;;;2.65;;
21110;SDS011;10713;51.912;4.494;2023-04-03T04:41:43;5.25;;;2.78;;
21110;SDS011;10713;51.912;4.494;2023-04-03T04:44:09;6.38;;;2.88;;
21110;SDS011;10713;51.912;4.494;2023-04-03T04:46:34;7.53;;;2.60;;
21110;SDS011;10713;51.912;4.494;2023-04-03T04:49:00;6.00;;;2.72;;
21110;SDS011;10713;51.912;4.494;2023-04-03T04:51:25;4.47;;;2.50;;
21110;SDS011;10713;51.912;4.494;2023-04-03T04:53:51;8.50;;;2.60;;
21110;SDS011;10713;51.912;4.494;2023-04-03T04:56:16;6.03;;;2.72;;
21110;SDS011;10713;51.912;4.494;2023-04-03T04:58:41;6.75;;;2.70;;
21110;SDS011;10713;51.912;4.494;2023-04-03T05:01:08;7.05;;;2.80;;
21110;SDS011;10713;51.912;4.494;2023-04-03T05:03:35;5.82;;;2.88;;
21110;SDS011;10713;51.912;4.494;2023-04-03T05:06:01;8.00;;;2.70;;
21110;SDS011;10713;51.912;4.494;2023-04-03T05:08:26;6.50;;;3.03;;
21110;SDS011;10713;51.912;4.494;2023-04-03T05:10:52;8.38;;;3.13;;
21110;SDS011;10713;51.912;4.494;2023-04-03T05:13:18;7.80;;;2.88;;
21110;SDS011;10713;51.912;4.494;2023-04-03T05:15:44;6.68;;;2.70;;
21110;SDS011;10713;51.912;4.494;2023-04-03T05:18:09;10.27;;;3.00;;
21110;SDS011;10713;51.912;4.494;2023-04-03T05:20:35;9.15;;;3.58;;
21110;SDS011;10713;51.912;4.494;2023-04-03T05:23:00;9.30;;;3.05;;
21110;SDS011;10713;51.912;4.494;2023-04-03T05:25:26;5.43;;;2.55;;
21110;SDS011;10713;51.912;4.494;2023-04-03T05:27:51;7.30;;;2.85;;
21110;SDS011;10713;51.912;4.494;2023-04-03T05:30:17;7.45;;;2.80;;
21110;SDS011;10713;51.912;4.494;2023-04-03T05:32:43;6.60;;;2.88;;
21110;SDS011;10713;51.912;4.494;2023-04-03T05:35:08;4.63;;;2.50;;
21110;SDS011;10713;51.912;4.494;2023-04-03T05:37:34;5.47;;;2.78;;
21110;SDS011;10713;51.912;4.494;2023-04-03T05:40:00;5.32;;;2.80;;
21110;SDS011;10713;51.912;4.494;2023-04-03T05:42:26;6.18;;;2.90;;
21110;SDS011;10713;51.912;4.494;2023-04-03T05:44:51;6.18;;;3.17;;
21110;SDS011;10713;51.912;4.494;2023-04-03T05:47:17;5.40;;;2.50;;
21110;SDS011;10713;51.912;4.494;2023-04-03T05:49:43;12.70;;;2.70;;
21110;SDS011;10713;51.912;4.494;2023-04-03T05:52:23;4.85;;;2.75;;
21110;SDS011;10713;51.912;4.494;2023-04-03T05:54:52;7.10;;;3.10;;
21110;SDS011;10713;51.912;4.494;2023-04-03T05:57:18;9.68;;;2.92;;
21110;SDS011;10713;51.912;4.494;2023-04-03T05:59:43;9.68;;;3.17;;
21110;SDS011;10713;51.912;4.494;2023-04-03T06:02:11;7.70;;;3.03;;
21110;SDS011;10713;51.912;4.494;2023-04-03T06:04:38;4.90;;;2.67;;
21110;SDS011;10713;51.912;4.494;2023-04-03T06:07:04;6.97;;;2.88;;
21110;SDS011;10713;51.912;4.494;2023-04-03T06:09:29;8.80;;;2.88;;
21110;SDS011;10713;51.912;4.494;2023-04-03T06:11:55;6.22;;;2.45;;
21110;SDS011;10713;51.912;4.494;2023-04-03T06:14:23;7.45;;;2.67;;
21110;SDS011;10713;51.912;4.494;2023-04-03T06:16:49;4.40;;;2.60;;
21110;SDS011;10713;51.912;4.494;2023-04-03T06:19:14;9.45;;;2.55;;
21110;SDS011;10713;51.912;4.494;2023-04-03T06:21:40;6.35;;;2.50;;
21110;SDS011;10713;51.912;4.494;2023-04-03T06:24:06;5.03;;;2.30;;
21110;SDS011;10713;51.912;4.494;2023-04-03T06:26:32;3.97;;;2.60;;
21110;SDS011;10713;51.912;4.494;2023-04-03T06:28:59;7.05;;;2.70;;
21110;SDS011;10713;51.912;4.494;2023-04-03T06:31:25;9.77;;;2.63;;
21110;SDS011;10713;51.912;4.494;2023-04-03T06:33:50;7.50;;;2.53;;
21110;SDS011;10713;51.912;4.494;2023-04-03T06:36:15;9.10;;;3.00;;
21110;SDS011;10713;51.912;4.494;2023-04-03T06:38:45;3.35;;;2.30;;
21110;SDS011;10713;51.912;4.494;2023-04-03T06:41:10;11.60;;;2.80;;
21110;SDS011;10713;51.912;4.494;2023-04-03T06:43:36;5.68;;;2.50;;
21110;SDS011;10713;51.912;4.494;2023-04-03T06:46:01;5.70;;;2.30;;
21110;SDS011;10713;51.912;4.494;2023-04-03T06:48:27;5.88;;;2.22;;
21110;SDS011;10713;51.912;4.494;2023-04-03T06:50:53;7.50;;;2.38;;
21110;SDS011;10713;51.912;4.494;2023-04-03T06:53:18;7.53;;;2.47;;
21110;SDS011;10713;51.912;4.494;2023-04-03T06:55:43;4.68;;;2.45;;
21110;SDS011;10713;51.912;4.494;2023-04-03T06:58:09;6.13;;;2.47;;
21110;SDS011;10713;51.912;4.494;2023-04-03T07:00:34;9.35;;;2.50;;
21110;SDS011;10713;51.912;4.494;2023-04-03T07:02:59;5.07;;;2.45;;
21110;SDS011;10713;51.912;4.494;2023-04-03T07:05:25;6.50;;;2.47;;
21110;SDS011;10713;51.912;4.494;2023-04-03T07:07:51;7.07;;;2.40;;
21110;SDS011;10713;51.912;4.494;2023-04-03T07:10:17;5.30;;;2.25;;
21110;SDS011;10713;51.912;4.494;2023-04-03T07:12:43;6.28;;;2.47;;
21110;SDS011;10713;51.912;4.494;2023-04-03T07:15:08;5.50;;;2.63;;
21110;SDS011;10713;51.912;4.494;2023-04-03T07:17:34;5.35;;;2.30;;
21110;SDS011;10713;51.912;4.494;2023-04-03T07:20:00;4.28;;;2.30;;
21110;SDS011;10713;51.912;4.494;2023-04-03T07:22:26;12.48;;;3.75;;
21110;SDS011;10713;51.912;4.494;2023-04-03T07:24:52;7.03;;;2.60;;
21110;SDS011;10713;51.912;4.494;2023-04-03T07:27:17;4.97;;;2.53;;
21110;SDS011;10713;51.912;4.494;2023-04-03T07:29:43;3.35;;;2.10;;
21110;SDS011;10713;51.912;4.494;2023-04-03T07:32:09;4.45;;;2.08;;
21110;SDS011;10713;51.912;4.494;2023-04-03T07:34:35;6.35;;;2.20;;
21110;SDS011;10713;51.912;4.494;2023-04-03T07:37:01;5.55;;;2.20;;
21110;SDS011;10713;51.912;4.494;2023-04-03T07:39:27;3.15;;;1.85;;
21110;SDS011;10713;51.912;4.494;2023-04-03T07:41:53;6.30;;;2.17;;
21110;SDS011;10713;51.912;4.494;2023-04-03T07:44:20;11.30;;;2.65;;
21110;SDS011;10713;51.912;4.494;2023-04-03T07:46:46;5.38;;;2.05;;
21110;SDS011;10713;51.912;4.494;2023-04-03T07:49:11;4.65;;;2.22;;
21110;SDS011;10713;51.912;4.494;2023-04-03T07:51:37;5.55;;;2.20;;
21110;SDS011;10713;51.912;4.494;2023-04-03T07:54:02;4.00;;;1.90;;
21110;SDS011;10713;51.912;4.494;2023-04-03T07:56:28;6.10;;;1.98;;
21110;SDS011;10713;51.912;4.494;2023-04-03T07:58:54;6.53;;;2.10;;
21110;SDS011;10713;51.912;4.494;2023-04-03T08:01:20;6.53;;;2.00;;
21110;SDS011;10713;51.912;4.494;2023-04-03T08:03:45;7.53;;;2.20;;
21110;SDS011;10713;51.912;4.494;2023-04-03T08:06:11;12.07;;;2.95;;
21110;SDS011;10713;51.912;4.494;2023-04-03T08:08:36;4.55;;;2.10;;
21110;SDS011;10713;51.912;4.494;2023-04-03T08:11:02;5.55;;;2.20;;
21110;SDS011;10713;51.912;4.494;2023-04-03T08:13:28;5.40;;;2.13;;
21110;SDS011;10713;51.912;4.494;2023-04-03T08:15:55;5.65;;;2.15;;
21110;SDS011;10713;51.912;4.494;2023-04-03T08:18:22;7.82;;;2.20;;
21110;SDS011;10713;51.912;4.494;2023-04-03T08:20:49;4.03;;;2.08;;
21110;SDS011;10713;51.912;4.494;2023-04-03T08:23:16;4.18;;;1.88;;
21110;SDS011;10713;51.912;4.494;2023-04-03T08:25:42;5.47;;;1.75;;
21110;SDS011;10713;51.912;4.494;2023-04-03T08:28:08;8.90;;;2.22;;
21110;SDS011;10713;51.912;4.494;2023-04-03T08:30:40;6.40;;;2.53;;
21110;SDS011;10713;51.912;4.494;2023-04-03T08:33:07;5.35;;;2.20;;
21110;SDS011;10713;51.912;4.494;2023-04-03T08:35:32;4.85;;;1.70;;
21110;SDS011;10713;51.912;4.494;2023-04-03T08:37:58;4.20;;;1.73;;
21110;SDS011;10713;51.912;4.494;2023-04-03T08:40:23;10.95;;;2.20;;
21110;SDS011;10713;51.912;4.494;2023-04-03T08:45:48;5.13;;;1.95;;
21110;SDS011;10713;51.912;4.494;2023-04-03T08:48:33;4.53;;;2.17;;
21110;SDS011;10713;51.912;4.494;2023-04-03T08:51:03;4.75;;;1.98;;
21110;SDS011;10713;51.912;4.494;2023-04-03T08:53:36;4.68;;;2.20;;
21110;SDS011;10713;51.912;4.494;2023-04-03T08:56:08;6.75;;;2.03;;
21110;SDS011;10713;51.912;4.494;2023-04-03T08:58:57;5.13;;;1.90;;
21110;SDS011;10713;51.912;4.494;2023-04-03T09:01:24;2.63;;;1.50;;
21110;SDS011;10713;51.912;4.494;2023-04-03T09:03:53;5.05;;;1.70;;
21110;SDS011;10713;51.912;4.494;2023-04-03T09:16:39;4.05;;;1.75;;
21110;SDS011;10713;51.912;4.494;2023-04-03T09:21:57;6.10;;;2.08;;
21110;SDS011;10713;51.912;4.494;2023-04-03T09:24:36;5.43;;;1.73;;
21110;SDS011;10713;51.912;4.494;2023-04-03T09:27:06;3.38;;;1.63;;
21110;SDS011;10713;51.912;4.494;2023-04-03T09:29:35;4.18;;;1.77;;
21110;SDS011;10713;51.912;4.494;2023-04-03T09:32:12;3.97;;;1.98;;
21110;SDS011;10713;51.912;4.494;2023-04-03T09:34:44;4.97;;;1.40;;
21110;SDS011;10713;51.912;4.494;2023-04-03T09:37:10;4.13;;;1.23;;
21110;SDS011;10713;51.912;4.494;2023-04-03T09:40:51;7.35;;;1.50;;
21110;SDS011;10713;51.912;4.494;2023-04-03T09:43:01;3.55;;;1.20;;
21110;SDS011;10713;51.912;4.494;2023-04-03T09:45:44;1.63;;;0.90;;
21110;SDS011;10713;51.912;4.494;2023-04-03T09:53:36;3.17;;;0.90;;
21110;SDS011;10713;51.912;4.494;2023-04-03T09:58:41;2.75;;;1.30;;
21110;SDS011;10713;51.912;4.494;2023-04-03T10:01:33;1.95;;;0.90;;
21110;SDS011;10713;51.912;4.494;2023-04-03T10:04:07;4.00;;;1.15;;
21110;SDS011;10713;51.912;4.494;2023-04-03T10:06:34;2.90;;;1.25;;
21110;SDS011;10713;51.912;4.494;2023-04-03T10:14:22;9.35;;;1.10;;
21110;SDS011;10713;51.912;4.494;2023-04-03T10:16:49;1.60;;;0.82;;
21110;SDS011;10713;51.912;4.494;2023-04-03T10:25:04;2.13;;;0.82;;
21110;SDS011;10713;51.912;4.494;2023-04-03T10:36:07;2.40;;;0.77;;
21110;SDS011;10713;51.912;4.494;2023-04-03T10:46:38;0.93;;;0.65;;
21110;SDS011;10713;51.912;4.494;2023-04-03T10:55:17;1.75;;;1.00;;
21110;SDS011;10713;51.912;4.494;2023-04-03T10:57:51;1.95;;;0.52;;
21110;SDS011;10713;51.912;4.494;2023-04-03T11:00:22;1.02;;;0.63;;
21110;SDS011;10713;51.912;4.494;2023-04-03T11:02:56;2.72;;;0.90;;
21110;SDS011;10713;51.912;4.494;2023-04-03T11:11:04;3.10;;;0.90;;
21110;SDS011;10713;51.912;4.494;2023-04-03T11:13:38;2.03;;;0.90;;
21110;SDS011;10713;51.912;4.494;2023-04-03T11:16:08;1.48;;;0.80;;
21110;SDS011;10713;51.912;4.494;2023-04-03T11:18:47;2.58;;;1.00;;
21110;SDS011;10713;51.912;4.494;2023-04-03T11:21:19;3.03;;;1.20;;
21110;SDS011;10713;51.912;4.494;2023-04-03T11:23:49;4.05;;;0.90;;
21110;SDS011;10713;51.912;4.494;2023-04-03T11:26:21;3.85;;;1.38;;
21110;SDS011;10713;51.912;4.494;2023-04-03T11:28:55;1.05;;;0.70;;
21110;SDS011;10713;51.912;4.494;2023-04-03T11:36:42;1.35;;;0.70;;
21110;SDS011;10713;51.912;4.494;2023-04-03T11:41:49;1.92;;;0.60;;
21110;SDS011;10713;51.912;4.494;2023-04-03T11:46:59;4.07;;;0.75;;
21110;SDS011;10713;51.912;4.494;2023-04-03T11:57:47;1.60;;;0.70;;
21110;SDS011;10713;51.912;4.494;2023-04-03T12:05:54;1.42;;;0.85;;
21110;SDS011;10713;51.912;4.494;2023-04-03T12:11:19;2.80;;;0.90;;
21110;SDS011;10713;51.912;4.494;2023-04-03T12:16:20;1.20;;;0.70;;
21110;SDS011;10713;51.912;4.494;2023-04-03T12:18:55;2.97;;;1.00;;
21110;SDS011;10713;51.912;4.494;2023-04-03T12:29:17;1.17;;;0.98;;
21110;SDS011;10713;51.912;4.494;2023-04-03T12:35:10;0.95;;;0.65;;
21110;SDS011;10713;51.912;4.494;2023-04-03T12:45:52;3.05;;;0.98;;
21110;SDS011;10713;51.912;4.494;2023-04-03T12:48:28;2.13;;;0.90;;
21110;SDS011;10713;51.912;4.494;2023-04-03T12:50:56;1.75;;;0.95;;
21110;SDS011;10713;51.912;4.494;2023-04-03T12:53:41;1.60;;;1.02;;
21110;SDS011;10713;51.912;4.494;2023-04-03T12:56:19;3.40;;;1.00;;
21110;SDS011;10713;51.912;4.494;2023-04-03T12:58:56;1.55;;;1.10;;
21110;SDS011;10713;51.912;4.494;2023-04-03T13:01:38;2.10;;;1.02;;
21110;SDS011;10713;51.912;4.494;2023-04-03T13:04:04;1.75;;;0.88;;
21110;SDS011;10713;51.912;4.494;2023-04-03T13:06:40;2.75;;;0.98;;
21110;SDS011;10713;51.912;4.494;2023-04-03T13:09:28;0.88;;;0.70;;
21110;SDS011;10713;51.912;4.494;2023-04-03T13:12:15;2.10;;;1.10;;
21110;SDS011;10713;51.912;4.494;2023-04-03T13:14:48;2.40;;;1.25;;
21110;SDS011;10713;51.912;4.494;2023-04-03T13:17:17;6.18;;;1.40;;
21110;SDS011;10713;51.912;4.494;2023-04-03T13:19:44;3.00;;;1.35;;
21110;SDS011;10713;51.912;4.494;2023-04-03T13:22:22;1.35;;;0.50;;
21110;SDS011;10713;51.912;4.494;2023-04-03T13:24:49;1.58;;;1.00;;
21110;SDS011;10713;51.912;4.494;2023-04-03T13:27:16;3.17;;;1.25;;
21110;SDS011;10713;51.912;4.494;2023-04-03T13:29:42;2.00;;;1.10;;
21110;SDS011;10713;51.912;4.494;2023-04-03T13:32:13;1.75;;;1.17;;
21110;SDS011;10713;51.912;4.494;2023-04-03T13:34:44;2.30;;;1.25;;
21110;SDS011;10713;51.912;4.494;2023-04-03T13:37:32;1.67;;;1.00;;
21110;SDS011;10713;51.912;4.494;2023-04-03T13:40:04;2.03;;;1.10;;
21110;SDS011;10713;51.912;4.494;2023-04-03T13:42:39;1.77;;;1.17;;
21110;SDS011;10713;51.912;4.494;2023-04-03T13:45:27;1.92;;;1.10;;
21110;SDS011;10713;51.912;4.494;2023-04-03T13:48:06;3.78;;;1.20;;
21110;SDS011;10713;51.912;4.494;2023-04-03T13:50:33;2.78;;;1.23;;
21110;SDS011;10713;51.912;4.494;2023-04-03T13:53:16;3.20;;;1.33;;
21110;SDS011;10713;51.912;4.494;2023-04-03T13:58:28;6.28;;;1.52;;
21110;SDS011;10713;51.912;4.494;2023-04-03T14:03:47;2.63;;;1.40;;
21110;SDS011;10713;51.912;4.494;2023-04-03T14:06:18;3.58;;;1.65;;
21110;SDS011;10713;51.912;4.494;2023-04-03T14:08:44;3.45;;;1.27;;
21110;SDS011;10713;51.912;4.494;2023-04-03T14:11:14;1.85;;;1.00;;
21110;SDS011;10713;51.912;4.494;2023-04-03T14:13:41;3.03;;;1.40;;
21110;SDS011;10713;51.912;4.494;2023-04-03T14:16:07;2.78;;;1.20;;
21110;SDS011;10713;51.912;4.494;2023-04-03T14:18:37;2.65;;;0.93;;
21110;SDS011;10713;51.912;4.494;2023-04-03T14:21:02;1.45;;;1.10;;
21110;SDS011;10713;51.912;4.494;2023-04-03T14:23:27;2.20;;;1.20;;
21110;SDS011;10713;51.912;4.494;2023-04-03T14:25:53;6.47;;;1.73;;
21110;SDS011;10713;51.912;4.494;2023-04-03T14:28:20;2.45;;;1.20;;
21110;SDS011;10713;51.912;4.494;2023-04-03T14:30:47;4.00;;;1.17;;
21110;SDS011;10713;51.912;4.494;2023-04-03T14:33:17;0.63;;;0.50;;
21110;SDS011;10713;51.912;4.494;2023-04-03T14:35:45;2.60;;;1.48;;
21110;SDS011;10713;51.912;4.494;2023-04-03T14:38:20;2.83;;;1.50;;
21110;SDS011;10713;51.912;4.494;2023-04-03T14:40:51;8.45;;;1.40;;
21110;SDS011;10713;51.912;4.494;2023-04-03T14:43:17;2.15;;;0.90;;
21110;SDS011;10713;51.912;4.494;2023-04-03T14:45:43;3.70;;;1.45;;
21110;SDS011;10713;51.912;4.494;2023-04-03T14:48:15;2.67;;;0.90;;
21110;SDS011;10713;51.912;4.494;2023-04-03T14:50:44;3.20;;;1.20;;
21110;SDS011;10713;51.912;4.494;2023-04-03T14:53:10;2.33;;;1.20;;
21110;SDS011;10713;51.912;4.494;2023-04-03T14:55:38;4.53;;;1.52;;
21110;SDS011;10713;51.912;4.494;2023-04-03T14:58:03;2.58;;;1.38;;
21110;SDS011;10713;51.912;4.494;2023-04-03T15:00:29;2.42;;;1.17;;
21110;SDS011;10713;51.912;4.494;2023-04-03T15:02:54;5.30;;;1.25;;
21110;SDS011;10713;51.912;4.494;2023-04-03T15:05:19;2.85;;;1.10;;
21110;SDS011;10713;51.912;4.494;2023-04-03T15:08:03;2.22;;;1.35;;
21110;SDS011;10713;51.912;4.494;2023-04-03T15:10:29;1.73;;;1.00;;
21110;SDS011;10713;51.912;4.494;2023-04-03T15:12:56;3.85;;;1.45;;
21110;SDS011;10713;51.912;4.494;2023-04-03T15:15:23;1.92;;;1.00;;
21110;SDS011;10713;51.912;4.494;2023-04-03T15:17:51;2.30;;;1.35;;
21110;SDS011;10713;51.912;4.494;2023-04-03T15:20:20;3.90;;;1.60;;
21110;SDS011;10713;51.912;4.494;2023-04-03T15:22:47;3.97;;;1.55;;
21110;SDS011;10713;51.912;4.494;2023-04-03T15:25:12;1.77;;;1.00;;
21110;SDS011;10713;51.912;4.494;2023-04-03T15:27:38;4.45;;;1.30;;
21110;SDS011;10713;51.912;4.494;2023-04-03T15:30:05;3.17;;;1.33;;
21110;SDS011;10713;51.912;4.494;2023-04-03T15:32:32;4.70;;;1.45;;
21110;SDS011;10713;51.912;4.494;2023-04-03T15:34:58;3.80;;;1.90;;
21110;SDS011;10713;51.912;4.494;2023-04-03T15:37:24;6.80;;;1.60;;
21110;SDS011;10713;51.912;4.494;2023-04-03T15:39:49;7.13;;;1.60;;
21110;SDS011;10713;51.912;4.494;2023-04-03T15:42:15;3.00;;;1.67;;
21110;SDS011;10713;51.912;4.494;2023-04-03T15:44:40;3.25;;;1.48;;
21110;SDS011;10713;51.912;4.494;2023-04-03T15:47:05;2.85;;;1.30;;
21110;SDS011;10713;51.912;4.494;2023-04-03T15:49:34;2.17;;;1.15;;
21110;SDS011;10713;51.912;4.494;2023-04-03T15:52:00;2.85;;;1.40;;
21110;SDS011;10713;51.912;4.494;2023-04-03T15:54:26;3.28;;;1.70;;
21110;SDS011;10713;51.912;4.494;2023-04-03T15:56:52;2.97;;;1.40;;
21110;SDS011;10713;51.912;4.494;2023-04-03T15:59:17;2.65;;;1.50;;
21110;SDS011;10713;51.912;4.494;2023-04-03T16:01:43;2.50;;;1.13;;
21110;SDS011;10713;51.912;4.494;2023-04-03T16:04:09;5.22;;;1.95;;
21110;SDS011;10713;51.912;4.494;2023-04-03T16:06:35;3.13;;;1.33;;
21110;SDS011;10713;51.912;4.494;2023-04-03T16:09:02;3.30;;;1.35;;
21110;SDS011;10713;51.912;4.494;2023-04-03T16:11:27;3.13;;;1.20;;
21110;SDS011;10713;51.912;4.494;2023-04-03T16:13:54;3.05;;;1.50;;
21110;SDS011;10713;51.912;4.494;2023-04-03T16:16:19;6.45;;;1.55;;
21110;SDS011;10713;51.912;4.494;2023-04-03T16:18:45;3.42;;;1.40;;
21110;SDS011;10713;51.912;4.494;2023-04-03T16:21:12;2.20;;;1.20;;
21110;SDS011;10713;51.912;4.494;2023-04-03T16:23:39;3.35;;;1.70;;
21110;SDS011;10713;51.912;4.494;2023-04-03T16:26:06;3.50;;;1.50;;
21110;SDS011;10713;51.912;4.494;2023-04-03T16:28:31;3.67;;;1.52;;
21110;SDS011;10713;51.912;4.494;2023-04-03T16:30:57;4.93;;;1.52;;
21110;SDS011;10713;51.912;4.494;2023-04-03T16:33:24;2.38;;;1.23;;
21110;SDS011;10713;51.912;4.494;2023-04-03T16:35:50;2.90;;;1.67;;
21110;SDS011;10713;51.912;4.494;2023-04-03T16:38:15;3.45;;;1.40;;
21110;SDS011;10713;51.912;4.494;2023-04-03T16:40:41;4.00;;;1.88;;
21110;SDS011;10713;51.912;4.494;2023-04-03T16:43:06;3.17;;;1.58;;
21110;SDS011;10713;51.912;4.494;2023-04-03T16:45:32;3.03;;;1.50;;
21110;SDS011;10713;51.912;4.494;2023-04-03T16:47:57;4.40;;;1.70;;
21110;SDS011;10713;51.912;4.494;2023-04-03T16:50:23;0.45;;;0.45;;
21110;SDS011;10713;51.912;4.494;2023-04-03T16:52:48;8.95;;;1.80;;
21110;SDS011;10713;51.912;4.494;2023-04-03T16:55:14;4.45;;;1.90;;